03TA weather

CLOSED Gay Hill Farm Airport
Gay Hill, Texas, United States

Public forecast

Using degrees Fahrenheit for public forecast. Weather courtesy of forecast.io.

METAR (pilot weather report)

Closest report is Brenham Municipal Airport, 7.0 nm (13.0 km) ESE. Retrieved 2019/07/22 11:35 UTC (8 minutes ago):

K11R 221135Z AUTO 00000KT 7SM CLR 25/25 A3000 RMK AO2 LTG DSNT E T02460246

TAF (pilot weather forecast)

Closest forecast is Easterwood Field, 20.8 nm (38.5 km) NNE. Retrieved 2019/07/22 06:24 UTC (5 hours ago):

TAF KCLL 220523Z 2206/2306 15010KT P6SM SCT015 SCT250 FM220900 19005KT P6SM SCT015 FM221100 20004KT P6SM BKN015 BKN250 TEMPO 2211/2213 OVC010 FM221500 23007KT P6SM SCT035 SCT250 FM222300 17006KT P6SM VCSH SCT040 OVC250 FM230200 VRB05KT P6SM VCTS BKN035CB OVC250 PROB30 2303/2306 01010G15KT TSRA